SAM ROCK 2018 le 01/11/2018

Recherche par Dossard : par Nom : par Club :

Place Dossard Nom Prenom Cat. Pl. Cat. Temps Club Sexe
1 424 OLYMPA DAVID V1 1 01:07:21 M
2 492 GARCIA Francois SE 1 01:11:15 RSMA M M
3 398 FOURMONT Jean-baptiste SE 2 01:11:24 M
4 353 AUSTER Xavier V1 2 01:14:04 LES BAROUDEURS M
5 359 JONCART Judes V1 3 01:16:16 M
6 616 TASBILLE YOHAN SE 3 01:16:18 M
7 331 IGLESIAS Luis V2 1 01:16:25 Les aigles de Pau M
8 382 NAZAROV Boris SE 4 01:17:14 M
9 303 GOLA Arnaud SE 5 01:18:21 M
10 491 DASSE-VINAY Lionel V2 2 01:19:00 RSMAM M
11 506 CACLIN Nicolas SE 6 01:19:56 GOLDEN STAR M
12 509 HO-CAN-SUNG Olivier SE 7 01:20:52 GOLDEN STAR M
13 476 IGLESIAS Teddy SE 8 01:21:58 RSMAM M
14 416 MOSES Olivier V1 4 01:23:39 M
15 534 FAVREAU Logan SE 9 01:23:45 M
16 453 MONIQUE Max V2 3 01:23:54 M
17 618 BOUISSAGUET Ugo SE 10 01:24:04 M
18 466 SIDNEY Jean-marc V2 4 01:25:58 AMCF M
19 328 NAUD Stephane SE 11 01:26:25 Golden Star M
20 501 CROTET Mathieu SE 12 01:27:37 pas de club M
21 316 VARISOT Fabrice V1 5 01:27:39 AIGLON / ASRFO M
22 497 VSPAM Jordan SE 13 01:28:32 RSMA M
23 352 DANET Yann CA 1 01:28:46 LES BAROUDERUS M
24 338 PAULA Manuel SE 14 01:28:58 M
25 401 BECHET Edouard V2 5 01:29:30 M
26 417 HUMBERT Pascal V1 6 01:29:35 M
27 423 GUILLAUME Laurent V1 7 01:29:47 M
28 475 HANNIBAL Patrick V1 8 01:30:29 M
29 597 ERICHER Emile V1 9 01:30:40 M
30 340 MARCENY Frédéric V1 10 01:31:25 M
31 360 RENEAUME Francois V2 6 01:31:37 M
32 488 RENNEVILLE Jean V1 11 01:31:39 RSMA M
33 233 CHAHMI Hamed SE 15 01:32:51 M
34 428 MARIE ANGELIQUE Rodrigue V1 12 01:32:57 M
35 391 HARDOIN Simon V1 13 01:32:59 M
36 481 SAUVAGNAC Paul CA 2 01:32:59 M
37 357 DOYEN Thierry V1 14 01:33:27 LES BAROUDEURS 972 M
38 588 SAGE Remi V1 15 01:33:31 AIGLON DU LAMENTIN M
39 564 GERMANY Florien CA 3 01:34:14 Ti Bawoudè M
40 494 BEGAT Tony V1 16 01:34:34 RSMA-M M
41 600 SALVIN Manuel SE 16 01:34:36 M
42 483 YALA Yann SE 17 01:34:39 GOLDEN STAR M
43 474 ROUVIER Virginie V2 1 01:34:40 F
44 304 CIDALISE-MONTAISE Franck-olivier V1 17 01:34:44 Club tchimbé raid M
45 240 DOUILLARD Jeremy SE 18 01:34:49 M
46 633 BERING Henri V1 18 01:34:54 MANQUANT CM M
47 313 CHOUTEAU Tony SE 19 01:34:56 M
48 496 DAVID Jérémy SE 20 01:34:58 RSMA M
49 518 AMBROISINE Jean-loic V1 19 01:35:07 M
50 373 LARCHER David V1 20 01:35:20 M
51 452 FAGOUR Laurence V1 1 01:35:39 F
52 448 THIMON Ely V2 7 01:36:14 M
53 632 GROS Jean-michel SE 21 01:36:37 F P & V M
54 307 SHUM KUEN Frederic SE 22 01:36:39 M
55 486 ICARD Anthony SE 23 01:36:53 M
56 640 CHARPENTIER-TITY LOUIS V3 1 01:37:09 M
57 619 CAUPENNE Hervey JU 1 01:37:33 M
58 350 HOLLAND Melissa MI 1 01:38:06 LES BAROUDEURS MARTINIQUE F
59 556 FOSSORIER Laure SE 1 01:38:57 F
60 644 CINNA MURIELLE V2 2 01:39:10 F
61 405 RASIER FREDERIC V2 8 01:39:33 HO HIO HEN AUTOMOBILE M
62 520 FORTUNE isaac SE 24 01:39:38 FJT CYCAS M
63 530 COROSINE Willy V1 21 01:39:41 M
64 487 GILLET Nicolas SE 25 01:39:56 M
65 344 MELKI Emile V1 22 01:39:58 M
66 582 THOMASI Jose V3 2 01:40:02 FRM Pitault M
67 322 SELLIER Renaud SE 26 01:40:26 Club manikou M
68 325 SCHOLASTIQUE Gilles V1 23 01:40:31 M
69 314 HOULLIER Tonny V1 24 01:40:39 M
70 563 MILANESE Sylvain SE 27 01:41:08 M
71 574 RALAISOMAY Natachouille SE 2 01:41:09 SQUALE CLUB F
72 543 ELIZABETH Catherine V2 3 01:41:24 FFA F
73 436 ARCADE JEAN PHILIPPE V2 9 01:41:27 M
74 548 LE MERCIER Gurwan CA 4 01:41:34 M
75 613 REMY Diany SE 28 01:41:36 M
76 504 MARTIN Stéphane V1 25 01:41:42 M
77 468 DE LEPINE Rudy SE 29 01:41:54 MAIRIE SPORTIVE M
78 596 ZAMY Sonia V2 4 01:42:12 F
79 366 BAZIT Boris SE 30 01:43:35 M
80 484 BELLEMARE Patrick V1 26 01:43:35 FLYING MANGOOSE M
81 621 ABSALON Aurelie SE 3 01:43:54 Les Baroudeurs F
82 559 NOUEL Jorevan SE 31 01:44:11 M
83 554 VEGA Jose V2 10 01:44:23 M
84 558 BROLLET Sylvain SE 32 01:44:29 M
85 440 LACLEF Olivier V1 27 01:44:52 M
86 236 FOLLIET Elsa SE 4 01:44:56 F
87 447 LAGUERRE Herve V2 11 01:45:19 LES BAROUDEURS 972 M
88 527 PALMONT Stéphane SE 5 01:45:24 F
89 358 YANG- TING Jean louis V2 12 01:45:27 M
90 583 CATAYEE Marie-Noelle V2 5 01:46:15 CLUB TCHIMBERAID F
91 432 ALCINDOR Frantz V2 13 01:46:27 M
92 535 TESOR Alain V2 14 01:46:33 CLUB TCHIMBERAID M
93 388 NARDIN Guillaume SE 33 01:46:33 M
94 449 CHARLES François V1 28 01:47:38 M
95 567 MARTOT Fabrina V1 2 01:47:42 F
96 418 MAXIMIN Patricia V2 6 01:47:44 ACS F
97 349 HOLLAND Thomas ES 1 01:47:51 LES BAROUDEURS MARTINIQUE M
98 571 VINCENT Quentin SE 34 01:47:52 M
99 631 THéODOSE Eléonore SE 6 01:47:56 F
100 645 MONTHIEUX ALLAN ES 2 01:47:58 M
101 301 BRUNET Julie SE 7 01:48:00 F
102 450 ELANA Sabrina SE 8 01:48:07 F
103 348 JUBENOT Rolande V2 7 01:48:07 F
104 321 LE BLéVEC Laura SE 9 01:48:53 Manikou F
105 493 BROIE Franck V1 29 01:49:21 RSMA-M M
106 505 DOUILLARD Aurélie SE 10 01:50:13 F
107 399 DE CHAVIGNY Gilles SE 35 01:50:14 M
108 411 MENIR Bernard V1 30 01:50:15 M
109 451 AGNOLY Mallonn V2 15 01:50:30 M
110 380 ZOZIME Jean-Paul V2 16 01:50:46 M
111 611 NIVORE Jonathan SE 36 01:50:48 M
112 315 ILLEMAY Marie therese V1 3 01:50:50 GOLDEN STAR F
113 426 LOUISON Jean-michel V1 31 01:51:36 M
114 586 DEL OLMO Joachim SE 37 01:51:38 M
115 465 MARTON Jimmy SE 38 01:52:11 M
116 608 RENE-AUBIN Robert V3 3 01:52:18 M
117 489 LEFEBVRE Charles-pierre V1 32 01:52:30 M
118 385 SBRIZZI Frederic V1 33 01:52:35 M
119 329 VENNAT Cédric SE 39 01:52:59 M
120 521 VENGETO Bernard V3 4 01:53:07 FJT CYCAS M
121 437 RABIA Nicolas V2 17 01:53:28 mairie sportive de fort de france M
122 463 DORIN David V1 34 01:53:39 AS RFO/ Martinique 1ère M
123 421 BOCLE Patrick V2 18 01:53:46 Tchimbé Raid M
124 393 MELEZAN Kathy SE 11 01:53:52 F
125 441 MELEZAN Peggy SE 12 01:53:53 F
126 500 DE CHAVIGNY Lionel SE 40 01:53:58 M
127 480 JANVIER Roger V2 19 01:54:02 CLUB TCHIMBERAID M
128 552 ADELAIDE Daniel V3 5 01:54:24 Manikou M
129 538 FIRMIN Mc V1 35 01:54:24 FLYING MANGOOSE M
130 555 JéGO Solenne SE 13 01:54:38 F
131 478 SASSI Aimen SE 41 01:54:46 RSMAM M
132 601 DIDIER Delphine SE 14 01:54:54 LES GIVREES F
133 472 HENRY Claudette V1 4 01:55:25 Manikou F
134 482 SAUVAGNAC Betty V2 8 01:55:30 F
135 477 DESSEIGNE Thibaut SE 42 01:56:21 M
136 623 POPOVIC Théo CA 5 01:56:29 M
137 537 RIVET Gaetan V1 36 01:56:34 M
138 625 JULIENO Philippe V2 20 01:56:46 HO HIO HEN AUTOMOBILE M
139 650 NICOLIN LEANDRE SE 43 01:57:00 M
140 649 FATSEAS JULES SE 44 01:57:00 M
141 370 MONDONNEIX Veronique V3 1 01:57:08 F
142 402 THIMON Philippe V2 21 01:57:37 M
143 384 RAUL Jean-jacques SE 45 01:57:39 M
144 427 ZOZOR Ludivine SE 15 01:57:54 CTR F
145 345 COLOTROC Jean philippe V2 22 01:58:04 Club Manikou organisation M
146 381 LE MERCIER Arnaud V1 37 01:58:05 M
147 387 DONES Jennifer SE 16 01:58:21 F
148 499 DECAESTEKER Julie SE 17 01:58:56 F
149 498 ROUSSEAU Louis-philippe SE 46 01:58:56 M
150 429 PEL Emilie CA 1 01:58:57 F
151 526 RIFFERT Yoann SE 47 01:59:01 M
152 409 MONOTUKA Regine V1 5 01:59:22 CLUB TCHIMBERAID F
153 404 NEY PAUL V2 23 01:59:25 HO HIO HEN AUTOMOBILE M
154 375 LEMY Fontenoy V4 1 01:59:27 STT M
155 425 LERIDER Myriam V1 6 01:59:29 STT F
156 434 MELISSE Danielle V1 7 01:59:43 F
157 479 LOPEZ Guillaume SE 48 01:59:47 RSMA-M M
158 490 HEMBERT Pierre-laurent V1 38 01:59:48 RSMA-M M
159 369 GLORIANNE Catherine V2 9 01:59:51 Manikou F
160 234 LATOUCHENT Marie SE 18 02:00:10 F
161 413 EDOUARD Emmanuel V5 1 02:00:24 M
162 317 VIELET Gaelle SE 19 02:00:41 F
163 523 ?Dossard #523 SE 49 02:00:54 M
164 528 FRANCOIS-ENDELMONT Patricia SE 20 02:01:03 F
165 585 PRIOR Nathalie V1 8 02:01:03 CLUB TCHIMBE RAID F
166 392 VANITOU Patrick V2 24 02:01:58 M
167 414 VINEL Mattis JU 2 02:02:04 M
168 566 AUGUSTINE Christelle SE 21 02:02:14 F
169 637 MONTEIL DANIEL V2 25 02:02:25 M
170 386 PEPELLIN Nicolas V1 39 02:02:41 M
171 343 KINET Frederic SE 50 02:03:08 M
172 576 CHEVALIER Maxime SE 51 02:03:52 UNITE SAINTE ROSIENNE ATHLETISME M
173 302 POULAILLE Andy SE 52 02:04:03 Club Manikou Organisations M
174 333 LUX Adeline SE 22 02:04:36 golgen stars F
175 503 THEMISTOCLE Aurélie SE 23 02:04:44 F
176 515 LECOMTE Gaelle V1 9 02:04:55 F
177 539 ARNAUD Krys SE 53 02:05:25 M
178 513 JAIKARAN Steeve SE 54 02:05:28 M
179 642 ZAMI SONIA BE 1 02:05:49 F
180 595 DUPUIS STEPHANE V1 40 02:05:53 M
181 320 SAUNAL Jeremy SE 55 02:05:53 M
182 318 BOMBLE Carole SE 24 02:05:53 F
183 400 RIMBAUD Michel V3 6 02:06:13 tchimbe raid M
184 335 DEFONTIS Alex V1 41 02:06:14 M
185 638 MARIE-JOSEPH ALBERT V2 26 02:06:22 M
186 306 CIDALISE-MONTAISE Sandra V1 10 02:06:39 Tchimbé raid F
187 310 JULIUS Karine SE 25 02:06:48 CLUB MANIKOU F
188 396 PIVERT Fred serge V2 27 02:07:03 M
189 590 BLAMEBLE Katia V1 11 02:07:03 F
190 330 MOLIERES Laurent V1 42 02:07:14 M
191 435 PEYRARD Catherine V1 12 02:07:20 F
192 372 SAINTE-CROIX Bénédicte SE 26 02:07:24 F
193 542 JEAN-BAPTISTE Fabienne SE 27 02:07:28 F
194 460 LAIGLE Rosita SE 28 02:07:38 Madin scapade F
195 457 BORNIL Jean-philippe V2 28 02:07:38 Madin Escapade M
196 454 RECHOU Samuel V1 43 02:07:39 Madin scapade M
197 455 RENARD Wil V2 29 02:07:39 CLUB MANIKOU M
198 565 LAGIER Ivy V1 13 02:08:03 F
199 562 GHEMOURI Farida V1 14 02:08:08 KAWANN TRIATHLON F
200 470 MORJON David V1 44 02:08:09 M
201 389 PRIVAT Sarah SE 29 02:08:13 F
202 442 LOUIS-MARIE-TĂśLG Cécilia V1 15 02:08:31 GOLDEN STAR F
203 502 BORISTHENE Marie V1 16 02:08:57 F
204 342 CIRILLE Béatrice V1 17 02:08:57 F
205 346 MONNEL Cendrine SE 30 02:09:10 F
206 511 TURPIN Alizee SE 31 02:09:15 F
207 394 PLATEL Marjorie SE 32 02:09:21 F
208 529 LECOMTE Lionel V2 30 02:09:41 M
209 551 CHRISTINE Herve simon V1 45 02:09:44 M
210 439 GAUVIN Nicolas V1 46 02:10:41 M
211 572 CHEVALLIER Constance SE 33 02:11:04 F
212 361 SUAU Serge V2 31 02:11:28 M
213 587 MOLE Isabelle V2 10 02:11:28 F
214 362 SALOMON Valérie V1 18 02:11:28 F
215 599 LAYEUX Sophia V2 11 02:11:29 FOYER RURAL MORNE PITAULT F
216 376 ENGRY Laetitia SE 34 02:11:49 F
217 374 ENGRY Michel V1 47 02:11:49 M
218 324 DARCHE Louis SE 56 02:11:52 M
219 459 GERMANY Jean-louis V1 48 02:12:55 Madin scapade M
220 646 RINNA ROSELYNE V1 19 02:13:05 F
221 332 EGA Olivier V1 49 02:13:37 M
222 579 CHATENAY Karine SE 35 02:15:10 F
223 469 ?Dossard #469 SE 57 02:15:26 M
224 23 ALIBO JEAN-LOUIS Chantal V2 12 02:15:39 F
225 561 LEONIL DUVAL Sylvie V2 13 02:15:42 KAWANN F
226 495 MOULONGUET Patrice V1 50 02:16:43 M
227 594 APPIN Willy SE 58 02:17:01 M
228 305 PEPELLIN Marilyne V1 20 02:17:09 F
229 445 BUNOD Bertrand V2 32 02:17:22 M
230 614 JOSEPH-GABRIEL David V1 51 02:17:22 M
231 354 BRICE EDDY V1 52 02:17:33 M
232 458 CLERY Josué SE 59 02:17:42 Madin scapade M
233 641 ZAIRE CHARLES V3 7 02:18:01 M
234 383 LE MERCIER Sylvie V1 21 02:18:09 F
235 634 SURIC Sabrina V1 22 02:18:13 AMCF F
236 578 EVENO Pauline SE 36 02:18:15 F
237 610 DELANGLE Dorothee SE 37 02:18:16 F
238 524 LOUIS Astrid V1 23 02:18:19 MANIKOU/TLT972/SPS TEAM F
239 628 MIRABEL Tania SE 38 02:18:34 F
240 334 MONCI Franceline V2 14 02:18:36 F
241 573 VAUPRé Annelise SE 39 02:18:43 F
242 420 RENé-CORAIL Catherine V1 24 02:19:04 F
243 589 MAURICE Manuela V2 15 02:19:07 Manikou/ TEAM TLT 972 F
244 431 EDJAM Claude V1 53 02:19:18 M
245 347 RAKOTONANDRASANA Karine V1 25 02:19:44 F
246 35 ABSALON Cora V3 2 02:19:46 F
247 312 MEZEN Agnčs SE 40 02:19:46 F
248 547 JACOBIERE Henri V3 8 02:19:47 CTR M
249 390 DAVYDYAK Olga V1 26 02:19:55 F
250 456 GABRIEL FREDERIC Céline V3 3 02:20:26 F
251 471 DELIN Lydia V1 27 02:20:29 ASC ZENITH F
252 444 CHEBAL Ghislaine V2 16 02:20:53 F
253 408 MOREAU Nathalie SE 41 02:20:53 F
254 367 DELRIC Paulin fernand V2 33 02:21:16 M
255 592 EVENO Clara SE 42 02:21:39 F
256 609 GERNO Viviane V2 17 02:23:03 F
257 536 PIERRE Nadege V1 28 02:23:06 F
258 461 BOULAY Gabrielle V1 29 02:23:06 F
259 647 MUDARD MIREILLE V1 30 02:23:20 CLUB MANIKOU F
260 485 JOSEPH-ALEXANDRE Gladys SE 43 02:23:50 F
261 419 HAYOT Gaelle V1 31 02:23:55 F
262 237 AUGUSTINE PHILIPPE V1 54 02:25:28 M
263 323 LEQUERTIER Marianne SE 44 02:25:33 F
264 422 ROCHE Beryl V2 18 02:25:40 F
265 371 DESERT Yvon V2 34 02:26:51 M
266 507 LEE CHOI MIU V1 55 02:27:37 HO HIO HEN AUTOMOBILE M
267 415 LERIGAB Davy V1 56 02:28:11 M
268 622 GARçON Annaelle CA 2 02:28:33 LES BAROUDEURS 972 F
269 355 COLAS Julien denis V2 35 02:28:46 M
270 630 ELIETTE Christian V3 9 02:28:54 club manikou M
271 406 PELAGE Lucien V2 36 02:29:48 HO HIO HEN AUTOMOBILE M
272 522 CLAIRICIA Linda SE 45 02:30:21 F
273 553 SIDOINE Sylvia V2 19 02:31:46 F
274 308 JOSEPH-AUGUSTE Denise V2 20 02:31:46 F
275 584 XAVIER Sandra V2 21 02:31:59 F
276 473 LEGAL Murielle V2 22 02:31:59 F
277 517 BLAND-MURCIANO Laetitia V1 32 02:31:59 FFA F
278 235 BERING CHLOE JU 1 02:32:02 F
279 635 VERNES GENEVIEVE SE 46 02:32:02 F
280 604 MOTY Jean Louis V2 37 02:32:12 CLUB TCHIMBE RAID M
281 378 JOSEPH Karene SE 47 02:32:19 Golden Star F
282 377 MONIER Grégory SE 60 02:32:21 Golden Star M
283 232 BERING NATHANAEL MI 1 02:33:06 M
284 410 RICHER Marthe eliane V2 23 02:33:12 F
285 512 SHORTIE Angélique SE 48 02:33:38 F
286 337 ARNAULD Valérie V1 33 02:34:08 F
287 606 MONEYRON Clément SE 61 02:35:44 M
288 319 BRUNO Beatrice SE 49 02:36:17 F
289 546 CLAIRICIA Fabienne V1 34 02:37:15 F
290 412 LEGER Romain V1 57 02:37:45 M
291 464 LOUISON-FRANCOIS Lydie SE 50 02:38:55 F
292 569 GAZET Nathalie V1 35 02:39:08 F
293 311 GAILLARD Gaelle SE 51 02:39:50 F
294 443 CLAVEAU Elsa V1 36 02:39:51 F
295 395 PIVERT Betty V1 37 02:41:30 F
296 430 PLUTON Elia MI 2 02:41:50 Ti Bawoudè F
297 598 MARIE SAINTE David V1 58 02:42:09 FRM Pitault M
298 365 RAYMOND Agnes SE 52 02:42:19 F
299 540 MARGUERITE Frantze V1 59 02:42:42 M
300 514 THEOBALD Severine V1 38 02:43:41 F
301 545 SIDOINE Stephanie SE 53 02:43:51 F
302 326 SUIVANT-ONCINS Huguette V1 39 02:47:18 F
303 557 LOUISET Wilfrid V1 60 02:49:10 M
304 602 NOEL Martine V2 24 02:49:11 F P & V F
305 605 BROLLET Josette V2 25 02:49:37 F P & V F
306 549 BERNARD Isabelle V1 40 02:50:33 F
307 626 EDOUARD Charles V1 61 02:50:33 HO HIO HEN AUTOMOBILE M
308 407 FITTE-DUVAL DIDIER V1 62 02:50:35 HO HIO HEN AUTOMOBILE M
309 624 TURBET DELOF Lucile CA 3 02:52:26 F
310 351 BEAUCHENE CHLOE CA 4 02:52:27 SCSM F
311 627 GARCIA E IGLESIA Jade CA 5 02:52:27 SCSM F
312 446 ETIENNE NOTTE Yannick V1 63 02:55:56 M
313 636 MAXIME PASCAL V1 64 02:55:56 M
314 33 DALMAT Marie-claire V2 26 02:58:27 F
315 341 GROS-DESORMEAUX Claudine V2 27 03:06:49 F
316 327 SAINT-LOUIS-AUGUSTIN Irene V3 4 03:10:58 CLUB MANIKOU F
317 580 JOSEPHA Joelle SE 54 03:12:33 F
318 581 LUXIN Lucile V1 41 03:12:34 F
319 532 DIONY Claudia V1 42 03:17:15 F
320 525 LIROY Malika JU 2 03:23:32 F
321 339 SUIVANT roberte V2 28 03:26:41 F
322 238 SABAN Sandrine V1 43 03:26:53 F
323 467 CAROLE Myléne V1 44 03:26:53 F